createdAt,value
2022-10-11T00:01:07.935Z,17.50
2022-10-11T00:03:47.903Z,17.50
2022-10-11T00:06:15.390Z,17.52
2022-10-11T00:08:56.743Z,17.45
2022-10-11T00:11:36.052Z,17.42
2022-10-11T00:14:15.884Z,17.44
2022-10-11T00:16:56.209Z,17.34
2022-10-11T00:19:35.697Z,17.37
2022-10-11T00:22:16.321Z,17.33
2022-10-11T00:24:55.334Z,17.33
2022-10-11T00:27:22.715Z,17.27
2022-10-11T00:30:02.143Z,17.16
2022-10-11T00:32:41.870Z,17.07
2022-10-11T00:35:18.688Z,16.98
2022-10-11T00:37:58.417Z,16.92
2022-10-11T00:40:38.388Z,16.94
2022-10-11T00:43:23.329Z,16.88
2022-10-11T00:46:17.272Z,16.77
2022-10-11T00:49:31.542Z,16.75
2022-10-11T00:52:42.681Z,16.71
2022-10-11T00:55:25.438Z,16.59
2022-10-11T00:58:05.508Z,16.58
2022-10-11T01:00:45.086Z,16.52
2022-10-11T01:03:31.784Z,16.49
2022-10-11T01:05:59.086Z,16.26
2022-10-11T01:08:52.119Z,16.28
2022-10-11T01:11:31.574Z,16.00
2022-10-11T01:14:27.470Z,16.05
2022-10-11T01:17:39.254Z,16.11
2022-10-11T01:20:43.538Z,16.13
2022-10-11T01:23:44.519Z,16.14
2022-10-11T01:27:05.479Z,16.08
2022-10-11T01:29:55.282Z,15.99
2022-10-11T01:32:53.997Z,15.98
2022-10-11T01:35:56.090Z,16.01
2022-10-11T01:38:44.621Z,15.99
2022-10-11T01:41:35.059Z,15.94
2022-10-11T01:44:14.620Z,15.90
2022-10-11T01:46:54.245Z,15.88
2022-10-11T01:49:33.667Z,15.84
2022-10-11T01:52:13.828Z,15.83
2022-10-11T01:55:20.503Z,15.76
2022-10-11T01:58:25.046Z,15.75
2022-10-11T02:01:32.199Z,15.69
2022-10-11T02:04:35.189Z,15.63
2022-10-11T02:07:33.013Z,15.61
2022-10-11T02:10:22.977Z,15.56
2022-10-11T02:13:19.888Z,15.53
2022-10-11T02:16:04.104Z,15.43
2022-10-11T02:18:50.389Z,15.40
2022-10-11T02:21:33.781Z,15.38
2022-10-11T02:24:27.226Z,15.37
2022-10-11T02:27:09.884Z,15.34
2022-10-11T02:29:51.543Z,15.12
2022-10-11T02:32:32.162Z,15.30
2022-10-11T02:35:12.579Z,15.34
2022-10-11T02:38:06.111Z,15.17
2022-10-11T02:41:12.928Z,15.22
2022-10-11T02:44:00.500Z,15.22
2022-10-11T02:46:43.402Z,15.12
2022-10-11T02:49:13.057Z,15.07
2022-10-11T02:51:40.111Z,15.06
2022-10-11T02:54:07.321Z,15.06
2022-10-11T02:56:46.737Z,15.15
2022-10-11T02:59:26.317Z,15.12
2022-10-11T03:02:06.330Z,15.13
2022-10-11T03:04:49.826Z,15.10
2022-10-11T03:07:29.010Z,15.16
2022-10-11T03:10:09.569Z,15.18
2022-10-11T03:12:48.641Z,15.23
2022-10-11T03:15:28.449Z,15.13
2022-10-11T03:18:08.024Z,15.01
2022-10-11T03:20:46.207Z,15.11
2022-10-11T03:23:24.416Z,14.98
2022-10-11T03:26:09.305Z,15.04
2022-10-11T03:28:48.904Z,15.03
2022-10-11T03:31:28.612Z,15.09
2022-10-11T03:34:06.865Z,15.16
2022-10-11T03:36:46.910Z,15.15
2022-10-11T03:39:26.480Z,15.31
2022-10-11T03:42:06.290Z,15.33
2022-10-11T03:44:49.008Z,15.38
2022-10-11T03:47:27.559Z,15.39
2022-10-11T03:50:09.681Z,15.43
2022-10-11T03:52:48.968Z,15.48
2022-10-11T03:55:28.695Z,15.12
2022-10-11T03:58:09.178Z,15.24
2022-10-11T04:00:52.532Z,15.35
2022-10-11T04:03:31.724Z,15.57
2022-10-11T04:06:10.907Z,15.68
2022-10-11T04:08:49.158Z,15.78
2022-10-11T04:11:28.937Z,15.83
2022-10-11T04:14:08.780Z,15.90
2022-10-11T04:16:48.901Z,15.93
2022-10-11T04:19:28.914Z,15.96
2022-10-11T04:22:11.095Z,15.95
2022-10-11T04:25:15.903Z,16.04
2022-10-11T04:27:55.624Z,15.98
2022-10-11T04:30:35.359Z,16.11
2022-10-11T04:33:15.089Z,16.14
2022-10-11T04:35:55.316Z,16.12
2022-10-11T04:38:34.991Z,16.03
2022-10-11T04:41:16.404Z,16.11
2022-10-11T04:43:56.135Z,16.14
2022-10-11T04:46:41.332Z,16.16
2022-10-11T04:49:20.533Z,16.14
2022-10-11T04:52:00.163Z,16.19
2022-10-11T04:54:38.445Z,16.30
2022-10-11T04:57:18.175Z,16.37
2022-10-11T04:59:56.462Z,16.38
2022-10-11T05:02:36.206Z,16.33
2022-10-11T05:05:17.477Z,16.38
2022-10-11T05:07:56.063Z,16.40
2022-10-11T05:10:35.595Z,16.41
2022-10-11T05:13:13.824Z,16.39
2022-10-11T05:15:52.670Z,16.43
2022-10-11T05:18:32.046Z,16.42
2022-10-11T05:21:21.069Z,16.52
2022-10-11T05:23:59.506Z,16.50
2022-10-11T05:26:37.594Z,16.52
2022-10-11T05:29:17.459Z,16.59
2022-10-11T05:31:57.604Z,16.50
2022-10-11T05:34:37.082Z,16.58
2022-10-11T05:37:15.390Z,16.61
2022-10-11T05:39:55.096Z,16.64
2022-10-11T05:42:34.904Z,16.63
2022-10-11T05:45:13.157Z,16.64
2022-10-11T05:47:52.923Z,16.67
2022-10-11T05:50:33.375Z,16.65
2022-10-11T05:53:12.575Z,16.72
2022-10-11T05:55:52.362Z,16.66
2022-10-11T05:58:32.126Z,16.77
2022-10-11T06:01:23.679Z,16.79
2022-10-11T06:04:04.755Z,16.77
2022-10-11T06:06:48.898Z,16.78
2022-10-11T06:09:29.346Z,16.66
2022-10-11T06:12:09.209Z,16.54
2022-10-11T06:15:11.916Z,16.66
2022-10-11T06:18:07.467Z,16.84
2022-10-11T06:21:04.258Z,16.83
2022-10-11T06:24:01.289Z,16.57
2022-10-11T06:26:40.055Z,16.99
2022-10-11T06:29:42.426Z,17.04
2022-10-11T06:32:39.216Z,17.11
2022-10-11T06:35:35.013Z,17.27
2022-10-11T06:38:28.592Z,17.40
2022-10-11T06:41:28.303Z,17.40
2022-10-11T06:44:29.536Z,17.69
2022-10-11T06:47:25.642Z,17.58
2022-10-11T06:50:40.773Z,17.63
2022-10-11T06:53:33.744Z,17.70
2022-10-11T06:56:29.986Z,17.63
2022-10-11T06:59:27.312Z,17.65
2022-10-11T07:02:29.943Z,17.43
2022-10-11T07:05:27.766Z,17.51
2022-10-11T07:08:24.269Z,17.55
2022-10-11T07:11:30.413Z,17.64
2022-10-11T07:14:26.153Z,17.76
2022-10-11T07:17:28.381Z,17.78
2022-10-11T07:20:27.223Z,17.89
2022-10-11T07:23:38.657Z,17.89
2022-10-11T07:26:39.342Z,17.91
2022-10-11T07:29:38.519Z,17.76
2022-10-11T07:32:35.323Z,17.47
2022-10-11T07:35:27.514Z,16.99
2022-10-11T07:38:23.644Z,17.16
2022-10-11T07:41:17.085Z,17.22
2022-10-11T07:44:10.204Z,17.42
2022-10-11T07:47:10.926Z,17.84
2022-10-11T07:50:05.447Z,17.81
2022-10-11T07:52:41.818Z,17.85
2022-10-11T07:55:18.657Z,17.97
2022-10-11T07:58:12.944Z,18.24
2022-10-11T08:01:14.708Z,18.34
2022-10-11T08:04:07.175Z,18.54
2022-10-11T08:07:04.899Z,18.62
2022-10-11T08:09:58.921Z,18.77
2022-10-11T08:12:48.478Z,18.34
2022-10-11T08:15:34.080Z,18.61
2022-10-11T08:18:19.737Z,18.73
2022-10-11T08:21:11.667Z,18.83
2022-10-11T08:23:57.419Z,18.90
2022-10-11T08:26:42.977Z,18.61
2022-10-11T08:29:28.575Z,18.36
2022-10-11T08:32:14.306Z,18.64
2022-10-11T08:34:59.988Z,18.78
2022-10-11T08:37:45.694Z,18.73
2022-10-11T08:40:35.153Z,19.01
2022-10-11T08:43:35.949Z,18.93
2022-10-11T08:46:29.092Z,19.26
2022-10-11T08:49:16.973Z,19.27
2022-10-11T08:51:51.082Z,19.32
2022-10-11T08:54:35.210Z,19.17
2022-10-11T08:57:06.115Z,19.55
2022-10-11T09:00:04.405Z,19.56
2022-10-11T09:03:14.842Z,19.58
2022-10-11T09:06:24.312Z,19.66
2022-10-11T09:09:42.122Z,19.65
2022-10-11T09:12:41.064Z,20.07
2022-10-11T09:15:15.401Z,20.14
2022-10-11T09:18:09.712Z,20.28
2022-10-11T09:21:30.387Z,20.41
2022-10-11T09:24:25.023Z,20.30
2022-10-11T09:26:59.519Z,20.26
2022-10-11T09:29:47.835Z,20.20
2022-10-11T09:32:20.841Z,20.10
2022-10-11T09:35:16.860Z,20.26
2022-10-11T09:37:56.277Z,20.24
2022-10-11T09:40:59.257Z,20.14
2022-10-11T09:43:26.400Z,20.24
2022-10-11T09:45:56.116Z,20.39
2022-10-11T09:48:28.935Z,20.24
2022-10-11T09:51:06.711Z,20.22
2022-10-11T09:54:12.720Z,20.37
2022-10-11T09:56:45.422Z,20.40
2022-10-11T09:59:35.128Z,20.43
2022-10-11T10:02:14.306Z,20.60
2022-10-11T10:04:53.407Z,20.32
2022-10-11T10:07:21.718Z,19.48
2022-10-11T10:09:49.729Z,19.84
2022-10-11T10:12:24.874Z,20.05
2022-10-11T10:15:19.664Z,20.20
2022-10-11T10:17:53.562Z,20.29
2022-10-11T10:20:31.780Z,20.21
2022-10-11T10:23:08.240Z,19.96
2022-10-11T10:25:43.034Z,19.98
2022-10-11T10:28:37.122Z,19.97
2022-10-11T10:31:04.229Z,19.96
2022-10-11T10:33:35.542Z,19.79
2022-10-11T10:36:14.186Z,19.85
2022-10-11T10:38:52.302Z,19.89
2022-10-11T10:41:19.741Z,20.09
2022-10-11T10:43:55.996Z,19.55
2022-10-11T10:46:46.125Z,19.86
2022-10-11T10:50:04.083Z,20.09
2022-10-11T10:53:01.048Z,20.13
2022-10-11T10:55:47.479Z,20.21
2022-10-11T10:58:42.754Z,20.58
2022-10-11T11:02:35.497Z,20.77
2022-10-11T11:05:54.760Z,21.05
2022-10-11T11:09:24.668Z,21.25
2022-10-11T11:12:48.654Z,21.66
2022-10-11T11:15:33.184Z,21.70
2022-10-11T11:18:29.631Z,21.73
2022-10-11T11:21:19.705Z,21.84
2022-10-11T11:24:42.926Z,21.41
2022-10-11T11:28:06.365Z,21.59
2022-10-11T11:31:29.602Z,21.52
2022-10-11T11:34:53.229Z,21.73
2022-10-11T11:37:55.564Z,21.54
2022-10-11T11:41:23.214Z,21.42
2022-10-11T11:44:46.958Z,21.78
2022-10-11T11:47:42.029Z,21.48
2022-10-11T11:50:24.963Z,21.49
2022-10-11T11:53:07.955Z,21.24
2022-10-11T11:55:44.004Z,22.07
2022-10-11T11:59:08.664Z,22.49
2022-10-11T12:01:47.117Z,22.13
2022-10-11T12:05:05.959Z,22.88
2022-10-11T12:08:01.343Z,23.36
2022-10-11T12:10:35.671Z,23.78
2022-10-11T12:13:18.363Z,24.60
2022-10-11T12:16:09.772Z,25.36
2022-10-11T12:18:59.222Z,24.47
2022-10-11T12:21:36.091Z,25.30
2022-10-11T12:24:07.068Z,26.46
2022-10-11T12:26:49.951Z,27.72
2022-10-11T12:29:18.155Z,28.41
2022-10-11T12:32:06.757Z,27.18
2022-10-11T12:37:17.897Z,27.48
2022-10-11T12:39:49.622Z,26.72
2022-10-11T12:42:24.626Z,26.20
2022-10-11T12:45:12.308Z,26.69
2022-10-11T12:47:54.804Z,26.98
2022-10-11T12:50:37.487Z,26.52
2022-10-11T12:53:39.693Z,25.62
2022-10-11T12:56:26.296Z,25.92
2022-10-11T12:59:04.826Z,26.08
2022-10-11T13:01:37.529Z,26.09
2022-10-11T13:04:11.482Z,25.36
2022-10-11T13:07:07.554Z,24.63
2022-10-11T13:09:41.583Z,24.58
2022-10-11T13:12:18.733Z,24.07
2022-10-11T13:14:56.743Z,24.57
2022-10-11T13:17:38.244Z,24.93
2022-10-11T13:20:15.600Z,25.05
2022-10-11T13:22:47.237Z,25.44
2022-10-11T13:25:24.466Z,25.38
2022-10-11T13:28:09.777Z,25.85
2022-10-11T13:30:42.816Z,25.34
2022-10-11T13:33:49.959Z,25.57
2022-10-11T13:36:18.464Z,25.28
2022-10-11T13:39:00.632Z,25.05
2022-10-11T13:41:30.438Z,24.80
2022-10-11T13:43:59.745Z,24.32
2022-10-11T13:46:29.760Z,24.06
2022-10-11T13:49:02.645Z,23.97
2022-10-11T13:51:37.337Z,23.80
2022-10-11T13:54:13.531Z,23.96
2022-10-11T13:56:49.901Z,24.34
2022-10-11T13:59:25.560Z,24.55
2022-10-11T14:02:00.155Z,24.95
2022-10-11T14:05:23.969Z,25.10
2022-10-11T14:07:51.938Z,25.23
2022-10-11T14:11:15.502Z,24.64
2022-10-11T14:13:49.608Z,24.21
2022-10-11T14:17:14.564Z,23.98
2022-10-11T14:19:43.860Z,23.95
2022-10-11T14:22:17.775Z,24.07
2022-10-11T14:24:48.389Z,23.81
2022-10-11T14:27:23.624Z,23.12
2022-10-11T14:30:19.923Z,22.33
2022-10-11T14:32:42.398Z,22.72
2022-10-11T14:35:23.978Z,22.74
2022-10-11T14:41:52.368Z,21.56
2022-10-11T14:45:15.938Z,21.22
2022-10-11T14:47:43.719Z,21.25
2022-10-11T14:50:27.790Z,21.25
2022-10-11T14:52:55.582Z,21.44
2022-10-11T14:56:21.731Z,21.41
2022-10-11T14:58:49.671Z,21.53
2022-10-11T15:02:13.182Z,21.25
2022-10-11T15:05:02.115Z,21.40
2022-10-11T15:07:29.201Z,21.52
2022-10-11T15:09:56.213Z,21.56
2022-10-11T15:12:23.433Z,21.53
2022-10-11T15:14:50.699Z,21.55
2022-10-11T15:17:17.967Z,21.39
2022-10-11T15:19:45.212Z,21.33
2022-10-11T15:22:12.232Z,21.37
2022-10-11T15:24:39.358Z,21.41
2022-10-11T15:27:06.389Z,21.51
2022-10-11T15:29:33.398Z,21.37
2022-10-11T15:32:00.399Z,21.30
2022-10-11T15:34:27.478Z,21.16
2022-10-11T15:36:54.465Z,21.29
2022-10-11T15:39:32.593Z,20.96
2022-10-11T15:42:00.125Z,20.96
2022-10-11T15:44:27.247Z,20.86
2022-10-11T15:46:54.662Z,20.74
2022-10-11T15:49:22.001Z,20.72
2022-10-11T15:51:49.022Z,20.68
2022-10-11T15:54:16.085Z,20.57
2022-10-11T15:56:43.234Z,20.21
2022-10-11T15:59:11.735Z,20.01
2022-10-11T16:01:39.182Z,20.04
2022-10-11T16:04:06.754Z,20.00
2022-10-11T16:06:33.957Z,19.89
2022-10-11T16:09:01.660Z,19.77
2022-10-11T16:11:29.176Z,19.95
2022-10-11T16:13:56.469Z,19.76
2022-10-11T16:16:23.753Z,19.85
2022-10-11T16:18:51.299Z,19.72
2022-10-11T16:21:20.366Z,19.47
2022-10-11T16:23:47.357Z,19.26
2022-10-11T16:26:16.252Z,19.27
2022-10-11T16:28:43.411Z,19.37
2022-10-11T16:31:15.501Z,19.47
2022-10-11T16:33:46.144Z,19.49
2022-10-11T16:36:39.963Z,19.44
2022-10-11T16:39:16.890Z,19.49
2022-10-11T16:41:44.924Z,19.52
2022-10-11T16:44:18.298Z,19.40
2022-10-11T16:46:48.487Z,19.44
2022-10-11T16:49:23.070Z,19.25
2022-10-11T16:51:52.403Z,19.28
2022-10-11T16:54:20.922Z,19.21
2022-10-11T16:56:51.133Z,19.27
2022-10-11T16:59:18.350Z,19.22
2022-10-11T17:01:46.171Z,19.15
2022-10-11T17:04:13.348Z,19.14
2022-10-11T17:06:43.637Z,19.03
2022-10-11T17:09:11.408Z,18.81
2022-10-11T17:11:38.831Z,18.68
2022-10-11T17:14:07.606Z,18.65
2022-10-11T17:16:35.468Z,18.62
2022-10-11T17:19:03.203Z,18.61
2022-10-11T17:21:30.460Z,18.56
2022-10-11T17:23:57.679Z,18.59
2022-10-11T17:26:26.964Z,18.39
2022-10-11T17:28:58.853Z,18.42
2022-10-11T17:31:27.912Z,18.50
2022-10-11T17:33:58.349Z,18.51
2022-10-11T17:36:34.501Z,18.20
2022-10-11T17:39:16.097Z,18.22
2022-10-11T17:41:44.644Z,18.12
2022-10-11T17:44:13.058Z,18.15
2022-10-11T17:46:41.021Z,18.11
2022-10-11T17:49:09.027Z,18.07
2022-10-11T17:51:37.724Z,18.05
2022-10-11T17:54:06.066Z,18.01
2022-10-11T17:56:37.622Z,17.84
2022-10-11T17:59:06.231Z,17.79
2022-10-11T18:01:33.436Z,17.71
2022-10-11T18:04:04.153Z,17.73
2022-10-11T18:06:34.580Z,17.69
2022-10-11T18:09:04.135Z,17.71
2022-10-11T18:11:32.150Z,17.84
2022-10-11T18:13:59.824Z,17.92
2022-10-11T18:16:30.084Z,17.83
2022-10-11T18:18:58.387Z,17.86
2022-10-11T18:21:31.214Z,17.93
2022-10-11T18:24:03.460Z,17.93
2022-10-11T18:26:31.309Z,17.97
2022-10-11T18:28:59.683Z,17.97
2022-10-11T18:31:31.028Z,17.80
2022-10-11T18:33:58.089Z,17.94
2022-10-11T18:36:29.884Z,17.77
2022-10-11T18:39:01.182Z,17.69
2022-10-11T18:41:31.944Z,17.70
2022-10-11T18:44:04.331Z,17.73
2022-10-11T18:46:32.053Z,17.68
2022-10-11T18:49:02.172Z,17.69
2022-10-11T18:51:33.558Z,17.73
2022-10-11T18:54:01.718Z,17.72
2022-10-11T18:56:31.766Z,17.72
2022-10-11T18:58:59.655Z,17.66
2022-10-11T19:01:36.311Z,17.58
2022-10-11T19:04:05.923Z,17.58
2022-10-11T19:06:40.426Z,17.48
2022-10-11T19:09:18.825Z,17.43
2022-10-11T19:11:51.448Z,17.42
2022-10-11T19:14:22.785Z,17.34
2022-10-11T19:16:51.986Z,17.40
2022-10-11T19:19:22.490Z,17.35
2022-10-11T19:21:50.406Z,17.28
2022-10-11T19:24:20.356Z,17.28
2022-10-11T19:26:47.947Z,17.09
2022-10-11T19:29:19.577Z,17.14
2022-10-11T19:32:00.565Z,17.06
2022-10-11T19:34:28.751Z,17.06
2022-10-11T19:36:57.036Z,17.02
2022-10-11T19:39:24.736Z,16.96
2022-10-11T19:41:52.312Z,16.89
2022-10-11T19:44:19.509Z,16.69
2022-10-11T19:46:52.112Z,16.65
2022-10-11T19:49:25.027Z,16.70
2022-10-11T19:51:53.748Z,16.74
2022-10-11T19:54:21.145Z,16.80
2022-10-11T19:56:48.700Z,16.79
2022-10-11T19:59:16.084Z,16.80
2022-10-11T20:01:46.633Z,16.75
2022-10-11T20:04:39.547Z,16.72
2022-10-11T20:07:02.562Z,16.91
2022-10-11T20:09:30.835Z,17.04
2022-10-11T20:11:59.071Z,17.08
2022-10-11T20:14:26.707Z,17.09
2022-10-11T20:16:53.806Z,17.02
2022-10-11T20:19:25.073Z,17.15
2022-10-11T20:21:55.162Z,17.21
2022-10-11T20:24:22.222Z,17.16
2022-10-11T20:26:49.258Z,17.08
2022-10-11T20:29:16.769Z,17.09
2022-10-11T20:31:43.857Z,17.14
2022-10-11T20:34:11.468Z,17.18
2022-10-11T20:36:38.543Z,16.98
2022-10-11T20:39:06.645Z,17.06
2022-10-11T20:41:39.932Z,17.17
2022-10-11T20:44:08.947Z,17.01
2022-10-11T20:46:41.318Z,17.05
2022-10-11T20:49:11.440Z,17.09
2022-10-11T20:51:41.751Z,17.04
2022-10-11T20:54:09.646Z,17.07
2022-10-11T20:56:38.095Z,17.22
2022-10-11T20:59:06.172Z,17.27
2022-10-11T21:01:40.633Z,17.31
2022-10-11T21:04:14.509Z,17.35
2022-10-11T21:06:41.849Z,17.39
2022-10-11T21:09:15.508Z,17.37
2022-10-11T21:11:48.977Z,17.39
2022-10-11T21:14:16.349Z,16.99
2022-10-11T21:16:43.835Z,17.19
2022-10-11T21:19:14.886Z,17.28
2022-10-11T21:21:43.523Z,17.34
2022-10-11T21:24:10.590Z,17.34
2022-10-11T21:26:37.603Z,17.39
2022-10-11T21:29:04.661Z,17.39
2022-10-11T21:31:34.307Z,17.37
2022-10-11T21:34:04.912Z,17.39
2022-10-11T21:36:32.204Z,17.43
2022-10-11T21:38:59.406Z,17.50
2022-10-11T21:41:29.993Z,17.48
2022-10-11T21:43:58.187Z,17.51
2022-10-11T21:47:01.141Z,17.48
2022-10-11T21:49:18.856Z,17.41
2022-10-11T21:51:46.025Z,17.38
2022-10-11T21:54:13.444Z,17.46
2022-10-11T21:56:41.276Z,17.43
2022-10-11T21:59:12.077Z,17.47
2022-10-11T22:01:41.600Z,17.44
2022-10-11T22:04:09.806Z,17.47
2022-10-11T22:06:38.790Z,17.41
2022-10-11T22:09:08.472Z,17.26
2022-10-11T22:11:35.947Z,17.20
2022-10-11T22:14:03.568Z,17.17
2022-10-11T22:16:34.273Z,17.13
2022-10-11T22:19:01.713Z,17.18
2022-10-11T22:21:29.006Z,17.19
2022-10-11T22:23:56.300Z,16.88
2022-10-11T22:26:27.578Z,17.09
2022-10-11T22:28:54.961Z,17.24
2022-10-11T22:31:23.353Z,17.13
2022-10-11T22:33:56.224Z,17.25
2022-10-11T22:36:26.145Z,17.21
2022-10-11T22:38:54.338Z,17.27
2022-10-11T22:41:22.575Z,17.35
2022-10-11T22:43:50.025Z,17.37
2022-10-11T22:46:17.577Z,17.41
2022-10-11T22:48:44.685Z,17.46
2022-10-11T22:51:12.135Z,17.43
2022-10-11T22:53:39.303Z,17.44
2022-10-11T22:56:08.723Z,17.32
2022-10-11T22:58:36.091Z,17.26
2022-10-11T23:01:11.954Z,17.16
2022-10-11T23:03:39.469Z,17.26
2022-10-11T23:06:06.741Z,17.25
2022-10-11T23:08:33.794Z,17.29
2022-10-11T23:11:06.155Z,17.37
2022-10-11T23:13:34.544Z,17.35
2022-10-11T23:16:10.533Z,17.40
2022-10-11T23:18:38.551Z,17.39
2022-10-11T23:21:07.507Z,17.35
2022-10-11T23:23:35.426Z,17.20
2022-10-11T23:26:08.828Z,17.17
2022-10-11T23:28:36.794Z,17.20
2022-10-11T23:31:13.947Z,17.24
2022-10-11T23:33:41.053Z,17.22
2022-10-11T23:36:21.026Z,17.17
2022-10-11T23:38:54.134Z,17.26
2022-10-11T23:41:27.773Z,17.28
2022-10-11T23:43:55.061Z,17.31
2022-10-11T23:46:27.288Z,17.29
2022-10-11T23:48:54.925Z,17.08
2022-10-11T23:51:22.457Z,17.13
2022-10-11T23:53:49.786Z,17.07
2022-10-11T23:56:17.084Z,17.13
2022-10-11T23:58:44.211Z,17.23
